createdAt,value
2022-10-23T00:01:29.617Z,98092.78
2022-10-23T00:03:59.870Z,98092.00
2022-10-23T00:06:29.288Z,98087.72
2022-10-23T00:08:57.794Z,98092.81
2022-10-23T00:11:29.461Z,98092.78
2022-10-23T00:14:00.098Z,98088.53
2022-10-23T00:16:30.506Z,98083.41
2022-10-23T00:18:59.901Z,98086.06
2022-10-23T00:21:28.421Z,98089.50
2022-10-23T00:23:58.991Z,98091.28
2022-10-23T00:26:27.585Z,98085.22
2022-10-23T00:28:56.242Z,98090.41
2022-10-23T00:31:25.819Z,98079.22
2022-10-23T00:33:57.861Z,98088.69
2022-10-23T00:36:26.105Z,98087.81
2022-10-23T00:38:54.346Z,98082.63
2022-10-23T00:41:24.540Z,98086.75
2022-10-23T00:44:02.106Z,98078.91
2022-10-23T00:46:30.837Z,98087.47
2022-10-23T00:49:01.379Z,98076.22
2022-10-23T00:51:33.212Z,98074.50
2022-10-23T00:54:22.933Z,98065.78
2022-10-23T00:56:51.057Z,98076.03
2022-10-23T00:59:20.915Z,98073.34
2022-10-23T01:01:49.539Z,98080.91
2022-10-23T01:04:19.562Z,98081.69
2022-10-23T01:06:53.008Z,98081.63
2022-10-23T01:09:25.459Z,98077.31
2022-10-23T01:11:58.720Z,98074.56
2022-10-23T01:14:32.200Z,98075.41
2022-10-23T01:17:07.528Z,98074.63
2022-10-23T01:19:52.186Z,98070.44
2022-10-23T01:22:34.179Z,98072.97
2022-10-23T01:25:05.638Z,98078.00
2022-10-23T01:27:38.270Z,98076.91
2022-10-23T01:30:08.611Z,98080.09
2022-10-23T01:32:47.368Z,98086.97
2022-10-23T01:35:20.610Z,98083.44
2022-10-23T01:38:01.347Z,98083.41
2022-10-23T01:40:33.755Z,98075.78
2022-10-23T01:43:06.777Z,98080.13
2022-10-23T01:45:38.711Z,98080.97
2022-10-23T01:48:11.392Z,98078.47
2022-10-23T01:50:41.087Z,98074.22
2022-10-23T01:53:10.468Z,98074.22
2022-10-23T01:58:14.928Z,98065.75
2022-10-23T02:00:44.960Z,98071.88
2022-10-23T02:03:17.731Z,98070.16
2022-10-23T02:05:46.251Z,98065.84
2022-10-23T02:08:16.842Z,98074.50
2022-10-23T02:10:50.895Z,98072.94
2022-10-23T02:13:24.979Z,98065.88
2022-10-23T02:15:59.262Z,98067.50
2022-10-23T02:18:35.717Z,98071.72
2022-10-23T02:21:07.974Z,98067.41
2022-10-23T02:23:40.151Z,98064.03
2022-10-23T02:26:13.536Z,98066.63
2022-10-23T02:28:48.446Z,98070.88
2022-10-23T02:31:19.035Z,98063.16
2022-10-23T02:33:48.705Z,98065.84
2022-10-23T02:36:17.600Z,98061.59
2022-10-23T02:38:47.587Z,98061.56
2022-10-23T02:41:26.146Z,98060.75
2022-10-23T02:44:12.397Z,98058.09
2022-10-23T02:46:50.572Z,98058.06
2022-10-23T02:49:21.843Z,98050.31
2022-10-23T02:51:57.438Z,98058.09
2022-10-23T02:54:37.504Z,98049.47
2022-10-23T02:57:10.849Z,98051.09
2022-10-23T02:59:45.145Z,98052.66
2022-10-23T03:02:18.734Z,98046.38
2022-10-23T03:04:48.001Z,98054.19
2022-10-23T03:07:16.868Z,98061.06
2022-10-23T03:09:45.199Z,98066.25
2022-10-23T03:12:18.339Z,98073.16
2022-10-23T03:14:48.163Z,98063.78
2022-10-23T03:17:18.784Z,98072.38
2022-10-23T03:19:48.635Z,98068.81
2022-10-23T03:22:17.284Z,98060.00
2022-10-23T03:24:45.797Z,98066.94
2022-10-23T03:27:15.017Z,98076.41
2022-10-23T03:29:43.885Z,98072.97
2022-10-23T03:32:13.681Z,98062.63
2022-10-23T03:34:42.060Z,98065.22
2022-10-23T03:37:13.559Z,98062.56
2022-10-23T03:39:42.005Z,98060.84
2022-10-23T03:42:10.385Z,98051.41
2022-10-23T03:44:38.750Z,98054.09
2022-10-23T03:47:07.646Z,98052.28
2022-10-23T03:49:37.577Z,98053.91
2022-10-23T03:52:08.912Z,98059.72
2022-10-23T03:54:37.477Z,98065.59
2022-10-23T03:57:05.825Z,98052.50
2022-10-23T03:59:34.239Z,98051.38
2022-10-23T04:02:02.698Z,98045.41
2022-10-23T04:04:33.414Z,98055.59
2022-10-23T04:07:03.250Z,98044.16
2022-10-23T04:09:31.648Z,98039.13
2022-10-23T04:12:00.058Z,98039.88
2022-10-23T04:14:30.198Z,98044.16
2022-10-23T04:16:58.555Z,98047.59
2022-10-23T04:19:28.896Z,98049.16
2022-10-23T04:21:58.373Z,98043.97
2022-10-23T04:24:28.531Z,98048.09
2022-10-23T04:26:57.882Z,98032.63
2022-10-23T04:29:31.760Z,98034.28
2022-10-23T04:32:00.586Z,98033.88
2022-10-23T04:34:29.892Z,98036.91
2022-10-23T04:36:58.440Z,98024.63
2022-10-23T04:39:28.284Z,98030.41
2022-10-23T04:41:59.897Z,98026.69
2022-10-23T04:44:30.037Z,98018.94
2022-10-23T04:46:59.084Z,98016.31
2022-10-23T04:49:27.731Z,98021.44
2022-10-23T04:52:15.667Z,98014.47
2022-10-23T04:55:17.926Z,98013.72
2022-10-23T04:57:54.610Z,98008.59
2022-10-23T05:00:28.480Z,98014.44
2022-10-23T05:02:58.401Z,98016.81
2022-10-23T05:05:33.680Z,98011.53
2022-10-23T05:08:24.257Z,98004.63
2022-10-23T05:11:26.296Z,98003.81
2022-10-23T05:13:55.205Z,98009.69
2022-10-23T05:16:32.238Z,98008.03
2022-10-23T05:19:01.233Z,98009.94
2022-10-23T05:21:31.560Z,98016.88
2022-10-23T05:24:02.192Z,98016.88
2022-10-23T05:26:32.531Z,98018.75
2022-10-23T05:29:07.514Z,98017.22
2022-10-23T05:31:36.900Z,98025.94
2022-10-23T05:34:13.772Z,98027.06
2022-10-23T05:36:45.617Z,98026.38
2022-10-23T05:39:15.445Z,98024.75
2022-10-23T05:41:45.356Z,98022.25
2022-10-23T05:44:13.838Z,98026.66
2022-10-23T05:47:14.117Z,98028.59
2022-10-23T05:49:54.128Z,98026.13
2022-10-23T05:52:48.010Z,98025.34
2022-10-23T05:55:33.134Z,98028.94
2022-10-23T05:58:21.035Z,98026.38
2022-10-23T06:01:10.568Z,98025.47
2022-10-23T06:03:56.146Z,98023.84
2022-10-23T06:06:31.526Z,98030.84
2022-10-23T06:08:59.943Z,98034.22
2022-10-23T06:11:28.390Z,98039.41
2022-10-23T06:14:02.838Z,98035.94
2022-10-23T06:16:32.543Z,98040.34
2022-10-23T06:19:02.039Z,98034.50
2022-10-23T06:21:30.567Z,98040.53
2022-10-23T06:23:59.332Z,98034.63
2022-10-23T06:26:48.066Z,98043.22
2022-10-23T06:29:22.762Z,98044.97
2022-10-23T06:31:52.382Z,98047.50
2022-10-23T06:34:52.551Z,98051.78
2022-10-23T06:37:21.239Z,98053.72
2022-10-23T06:40:01.842Z,98053.91
2022-10-23T06:42:43.825Z,98060.97
2022-10-23T06:45:38.109Z,98063.63
2022-10-23T06:48:15.901Z,98064.59
2022-10-23T06:51:15.607Z,98069.84
2022-10-23T06:53:46.062Z,98059.72
2022-10-23T06:56:35.257Z,98060.59
2022-10-23T06:59:08.737Z,98056.41
2022-10-23T07:01:39.845Z,98047.97
2022-10-23T07:04:09.636Z,98063.34
2022-10-23T07:06:40.272Z,98065.31
2022-10-23T07:09:09.236Z,98067.53
2022-10-23T07:11:57.882Z,98072.78
2022-10-23T07:14:34.655Z,98075.06
2022-10-23T07:17:08.165Z,98072.41
2022-10-23T07:19:36.687Z,98073.47
2022-10-23T07:22:12.031Z,98081.38
2022-10-23T07:24:50.311Z,98080.59
2022-10-23T07:27:26.826Z,98079.78
2022-10-23T07:30:01.675Z,98085.91
2022-10-23T07:32:36.389Z,98084.31
2022-10-23T07:35:23.656Z,98089.72
2022-10-23T07:38:15.137Z,98085.22
2022-10-23T07:40:47.547Z,98088.94
2022-10-23T07:43:20.996Z,98080.53
2022-10-23T07:45:50.431Z,98067.97
2022-10-23T07:48:27.701Z,98071.69
2022-10-23T07:51:01.926Z,98064.00
2022-10-23T07:53:32.430Z,98057.22
2022-10-23T07:56:15.360Z,98064.09
2022-10-23T07:59:02.326Z,98062.59
2022-10-23T08:01:32.987Z,98060.91
2022-10-23T08:04:02.991Z,98061.06
2022-10-23T08:06:35.389Z,98061.94
2022-10-23T08:09:06.569Z,98067.09
2022-10-23T08:11:39.955Z,98068.69
2022-10-23T08:14:10.736Z,98054.94
2022-10-23T08:16:40.861Z,98049.91
2022-10-23T08:19:30.410Z,98051.69
2022-10-23T08:22:00.635Z,98048.31
2022-10-23T08:24:28.995Z,98059.53
2022-10-23T08:26:58.718Z,98052.69
2022-10-23T08:29:30.797Z,98043.22
2022-10-23T08:32:00.861Z,98034.50
2022-10-23T08:34:41.992Z,98029.38
2022-10-23T08:37:10.629Z,98026.75
2022-10-23T08:39:38.925Z,98017.22
2022-10-23T08:42:22.071Z,98028.50
2022-10-23T08:45:00.724Z,98025.03
2022-10-23T08:47:32.466Z,98020.81
2022-10-23T08:50:41.301Z,98027.75
2022-10-23T08:53:16.560Z,98019.13
2022-10-23T08:55:47.941Z,98026.94
2022-10-23T08:58:18.705Z,98030.38
2022-10-23T09:00:48.984Z,98026.06
2022-10-23T09:03:17.767Z,98028.63
2022-10-23T09:05:58.686Z,98021.69
2022-10-23T09:08:37.688Z,98026.03
2022-10-23T09:11:08.444Z,98015.63
2022-10-23T09:14:02.172Z,98015.59
2022-10-23T09:16:42.054Z,98012.88
2022-10-23T09:19:14.790Z,98011.16
2022-10-23T09:21:46.238Z,98011.16
2022-10-23T09:24:17.981Z,98008.41
2022-10-23T09:26:49.760Z,98013.69
2022-10-23T09:29:23.985Z,98006.81
2022-10-23T09:31:53.306Z,98000.72
2022-10-23T09:34:23.745Z,98005.06
2022-10-23T09:39:30.732Z,98005.97
2022-10-23T09:41:59.523Z,98006.00
2022-10-23T09:44:31.240Z,98006.75
2022-10-23T09:47:01.681Z,98002.50
2022-10-23T09:49:31.743Z,98007.63
2022-10-23T09:52:06.091Z,98003.38
2022-10-23T09:54:37.728Z,97999.03
2022-10-23T09:57:15.723Z,98000.75
2022-10-23T09:59:44.052Z,97983.19
2022-10-23T10:02:21.671Z,97981.31
2022-10-23T10:05:23.608Z,97974.19
2022-10-23T10:07:57.945Z,97970.19
2022-10-23T10:10:27.773Z,97969.25
2022-10-23T10:13:00.159Z,97963.19
2022-10-23T10:15:30.150Z,97949.56
2022-10-23T10:18:09.354Z,97942.78
2022-10-23T10:20:48.029Z,97948.03
2022-10-23T10:23:28.154Z,97939.38
2022-10-23T10:26:04.193Z,97945.16
2022-10-23T10:28:43.849Z,97925.13
2022-10-23T10:31:18.005Z,97920.81
2022-10-23T10:33:53.434Z,97914.81
2022-10-23T10:36:34.086Z,97905.03
2022-10-23T10:39:05.628Z,97894.28
2022-10-23T10:41:41.600Z,97891.81
2022-10-23T10:44:34.195Z,97883.84
2022-10-23T10:47:08.284Z,97890.13
2022-10-23T10:49:43.145Z,97891.47
2022-10-23T10:52:33.324Z,97873.63
2022-10-23T10:55:12.726Z,97872.91
2022-10-23T10:57:43.878Z,97860.91
2022-10-23T11:00:17.422Z,97858.59
2022-10-23T11:02:48.166Z,97857.47
2022-10-23T11:05:26.125Z,97848.97
2022-10-23T11:07:57.515Z,97838.53
2022-10-23T11:10:28.424Z,97846.19
2022-10-23T11:12:57.053Z,97833.59
2022-10-23T11:15:28.728Z,97835.81
2022-10-23T11:18:00.353Z,97831.09
2022-10-23T11:20:50.984Z,97824.56
2022-10-23T11:23:54.020Z,97816.09
2022-10-23T11:26:34.241Z,97800.69
2022-10-23T11:29:37.686Z,97804.38
2022-10-23T11:32:20.287Z,97802.19
2022-10-23T11:35:09.314Z,97787.25
2022-10-23T11:37:40.969Z,97784.03
2022-10-23T11:40:22.958Z,97779.00
2022-10-23T11:42:53.380Z,97779.94
2022-10-23T11:45:34.048Z,97769.91
2022-10-23T11:48:03.695Z,97770.38
2022-10-23T11:50:34.243Z,97779.56
2022-10-23T11:53:13.930Z,97771.16
2022-10-23T11:55:59.946Z,97775.63
2022-10-23T11:58:45.376Z,97773.16
2022-10-23T12:01:36.106Z,97775.31
2022-10-23T12:04:15.527Z,97782.50
2022-10-23T12:06:46.940Z,97785.25
2022-10-23T12:09:32.100Z,97779.91
2022-10-23T12:12:31.957Z,97771.91
2022-10-23T12:15:20.408Z,97751.31
2022-10-23T12:17:51.326Z,97743.44
2022-10-23T12:20:32.798Z,97735.72
2022-10-23T12:23:17.458Z,97733.31
2022-10-23T12:25:58.451Z,97723.50
2022-10-23T12:28:32.969Z,97726.19
2022-10-23T12:31:09.708Z,97720.91
2022-10-23T12:33:44.532Z,97717.84
2022-10-23T12:36:33.852Z,97708.13
2022-10-23T12:39:02.314Z,97705.38
2022-10-23T12:41:32.834Z,97697.56
2022-10-23T12:44:03.464Z,97694.16
2022-10-23T12:46:35.228Z,97688.06
2022-10-23T12:49:14.654Z,97692.59
2022-10-23T12:51:43.017Z,97690.72
2022-10-23T12:54:17.339Z,97691.47
2022-10-23T12:56:46.353Z,97679.38
2022-10-23T12:59:18.304Z,97672.53
2022-10-23T13:01:52.419Z,97679.53
2022-10-23T13:04:28.048Z,97666.25
2022-10-23T13:06:57.152Z,97671.16
2022-10-23T13:09:29.042Z,97658.50
2022-10-23T13:12:24.432Z,97669.84
2022-10-23T13:14:59.421Z,97661.59
2022-10-23T13:17:40.244Z,97666.38
2022-10-23T13:20:27.835Z,97660.19
2022-10-23T13:23:01.286Z,97658.19
2022-10-23T13:25:32.254Z,97654.66
2022-10-23T13:28:25.408Z,97654.94
2022-10-23T13:31:25.196Z,97640.91
2022-10-23T13:34:07.520Z,97642.50
2022-10-23T13:36:37.724Z,97636.06
2022-10-23T13:39:15.415Z,97634.50
2022-10-23T13:41:45.079Z,97632.13
2022-10-23T13:44:18.582Z,97638.78
2022-10-23T13:46:48.528Z,97632.19
2022-10-23T13:49:18.563Z,97632.59
2022-10-23T13:51:50.324Z,97623.31
2022-10-23T13:54:22.657Z,97630.25
2022-10-23T13:56:54.326Z,97627.56
2022-10-23T13:59:22.847Z,97634.22
2022-10-23T14:04:24.119Z,97626.91
2022-10-23T14:06:58.715Z,97632.59
2022-10-23T14:09:27.204Z,97631.69
2022-10-23T14:11:57.821Z,97626.09
2022-10-23T14:14:26.642Z,97631.50
2022-10-23T14:16:55.394Z,97627.69
2022-10-23T14:19:25.374Z,97622.28
2022-10-23T14:21:54.143Z,97633.31
2022-10-23T14:24:23.733Z,97633.78
2022-10-23T14:26:52.544Z,97636.03
2022-10-23T14:29:24.062Z,97632.09
2022-10-23T14:31:53.102Z,97627.47
2022-10-23T14:34:21.982Z,97630.25
2022-10-23T14:37:04.023Z,97625.72
2022-10-23T14:39:37.010Z,97625.72
2022-10-23T14:42:05.851Z,97627.38
2022-10-23T14:44:34.447Z,97624.72
2022-10-23T14:47:03.243Z,97630.09
2022-10-23T14:49:32.796Z,97634.13
2022-10-23T14:52:03.548Z,97633.41
2022-10-23T14:54:34.623Z,97622.19
2022-10-23T14:57:02.961Z,97622.25
2022-10-23T14:59:35.204Z,97624.25
2022-10-23T15:02:07.124Z,97620.06
2022-10-23T15:04:35.886Z,97620.16
2022-10-23T15:07:07.031Z,97621.38
2022-10-23T15:09:37.156Z,97616.81
2022-10-23T15:12:05.984Z,97611.69
2022-10-23T15:14:34.691Z,97611.09
2022-10-23T15:17:05.920Z,97613.47
2022-10-23T15:19:34.227Z,97615.47
2022-10-23T15:22:03.124Z,97620.13
2022-10-23T15:24:36.360Z,97622.09
2022-10-23T15:27:05.029Z,97623.31
2022-10-23T15:29:34.038Z,97626.19
2022-10-23T15:32:03.078Z,97629.94
2022-10-23T15:34:32.952Z,97627.66
2022-10-23T15:37:04.229Z,97631.38
2022-10-23T15:39:39.178Z,97634.34
2022-10-23T15:42:08.784Z,97627.69
2022-10-23T15:44:37.966Z,97636.59
2022-10-23T15:47:06.853Z,97627.28
2022-10-23T15:49:35.380Z,97633.56
2022-10-23T15:52:05.675Z,97637.22
2022-10-23T15:54:34.491Z,97635.00
2022-10-23T15:57:06.244Z,97639.75
2022-10-23T15:59:35.391Z,97641.94
2022-10-23T16:02:04.301Z,97653.31
2022-10-23T16:04:38.039Z,97656.72
2022-10-23T16:07:07.336Z,97661.22
2022-10-23T16:09:36.959Z,97666.06
2022-10-23T16:12:11.723Z,97668.63
2022-10-23T16:14:41.063Z,97667.22
2022-10-23T16:17:09.800Z,97672.53
2022-10-23T16:19:38.684Z,97670.91
2022-10-23T16:22:10.419Z,97668.53
2022-10-23T16:24:40.120Z,97683.69
2022-10-23T16:27:10.959Z,97684.41
2022-10-23T16:29:40.010Z,97687.06
2022-10-23T16:32:08.437Z,97683.56
2022-10-23T16:34:37.788Z,97691.66
2022-10-23T16:37:06.654Z,97692.72
2022-10-23T16:39:48.221Z,97705.84
2022-10-23T16:42:30.943Z,97710.28
2022-10-23T16:45:12.678Z,97716.38
2022-10-23T16:47:41.747Z,97718.19
2022-10-23T16:50:11.153Z,97712.13
2022-10-23T16:52:43.528Z,97720.75
2022-10-23T16:55:18.066Z,97714.59
2022-10-23T16:57:53.684Z,97723.34
2022-10-23T17:00:24.946Z,97731.38
2022-10-23T17:02:54.718Z,97737.59
2022-10-23T17:05:26.915Z,97741.09
2022-10-23T17:08:03.153Z,97741.97
2022-10-23T17:10:40.363Z,97737.44
2022-10-23T17:13:13.607Z,97747.84
2022-10-23T17:15:44.317Z,97747.75
2022-10-23T17:18:14.257Z,97749.63
2022-10-23T17:20:46.201Z,97752.38
2022-10-23T17:23:18.595Z,97741.28
2022-10-23T17:25:58.266Z,97744.84
2022-10-23T17:28:30.310Z,97749.88
2022-10-23T17:31:00.795Z,97746.75
2022-10-23T17:33:33.662Z,97751.09
2022-10-23T17:36:05.828Z,97748.56
2022-10-23T17:38:38.766Z,97734.00
2022-10-23T17:41:10.438Z,97738.34
2022-10-23T17:43:43.794Z,97737.47
2022-10-23T17:46:15.874Z,97734.91
2022-10-23T17:48:47.795Z,97737.34
2022-10-23T17:51:23.217Z,97754.78
2022-10-23T17:53:55.981Z,97746.16
2022-10-23T17:56:28.329Z,97740.19
2022-10-23T17:59:03.225Z,97751.44
2022-10-23T18:01:33.989Z,97755.75
2022-10-23T18:04:06.142Z,97753.19
2022-10-23T18:06:38.650Z,97750.53
2022-10-23T18:09:10.353Z,97752.31
2022-10-23T18:11:45.409Z,97752.31
2022-10-23T18:14:19.401Z,97741.97
2022-10-23T18:16:50.590Z,97748.00
2022-10-23T18:19:27.011Z,97754.78
2022-10-23T18:21:58.062Z,97753.13
2022-10-23T18:24:28.937Z,97743.50
2022-10-23T18:27:01.201Z,97746.97
2022-10-23T18:29:32.905Z,97741.06
2022-10-23T18:32:02.973Z,97738.50
2022-10-23T18:34:33.607Z,97741.16
2022-10-23T18:37:03.996Z,97739.50
2022-10-23T18:39:33.990Z,97738.66
2022-10-23T18:42:04.998Z,97728.34
2022-10-23T18:44:36.746Z,97733.53
2022-10-23T18:47:18.712Z,97725.78
2022-10-23T18:49:50.028Z,97724.94
2022-10-23T18:52:24.660Z,97719.72
2022-10-23T18:55:01.751Z,97722.34
2022-10-23T18:57:33.053Z,97717.16
2022-10-23T19:00:06.069Z,97722.31
2022-10-23T19:02:38.830Z,97705.09
2022-10-23T19:05:10.298Z,97713.69
2022-10-23T19:07:46.644Z,97700.75
2022-10-23T19:10:20.692Z,97707.66
2022-10-23T19:12:51.547Z,97705.88
2022-10-23T19:15:23.106Z,97716.19
2022-10-23T19:17:56.736Z,97708.41
2022-10-23T19:23:04.290Z,97700.72
2022-10-23T19:25:36.023Z,97703.22
2022-10-23T19:28:08.194Z,97696.34
2022-10-23T19:30:39.419Z,97691.97
2022-10-23T19:33:10.234Z,97692.75
2022-10-23T19:35:43.484Z,97685.94
2022-10-23T19:38:13.941Z,97678.94
2022-10-23T19:40:47.655Z,97690.16
2022-10-23T19:43:18.722Z,97688.44
2022-10-23T19:45:53.578Z,97687.44
2022-10-23T19:48:23.543Z,97683.72
2022-10-23T19:50:54.881Z,97671.78
2022-10-23T19:53:25.004Z,97676.16
2022-10-23T19:56:05.446Z,97676.06
2022-10-23T19:58:35.825Z,97685.69
2022-10-23T20:01:11.536Z,97677.97
2022-10-23T20:03:41.539Z,97670.97
2022-10-23T20:06:15.368Z,97668.38
2022-10-23T20:08:45.545Z,97659.75
2022-10-23T20:11:21.962Z,97658.91
2022-10-23T20:13:52.413Z,97666.69
2022-10-23T20:16:28.371Z,97665.69
2022-10-23T20:19:00.051Z,97656.81
2022-10-23T20:21:29.399Z,97664.84
2022-10-23T20:23:59.867Z,97659.94
2022-10-23T20:26:31.050Z,97663.44
2022-10-23T20:29:01.182Z,97665.22
2022-10-23T20:31:32.076Z,97663.50
2022-10-23T20:34:01.775Z,97668.69
2022-10-23T20:36:34.220Z,97669.63
2022-10-23T20:39:07.245Z,97675.72
2022-10-23T20:41:39.562Z,97687.88
2022-10-23T20:44:10.873Z,97686.19
2022-10-23T20:46:44.687Z,97690.47
2022-10-23T20:49:15.144Z,97699.97
2022-10-23T20:51:47.497Z,97694.81
2022-10-23T20:54:16.643Z,97694.84
2022-10-23T20:56:45.808Z,97700.88
2022-10-23T20:59:16.079Z,97704.34
2022-10-23T21:01:49.534Z,97703.50
2022-10-23T21:04:19.142Z,97711.22
2022-10-23T21:07:08.449Z,97702.63
2022-10-23T21:09:36.149Z,97696.56
2022-10-23T21:12:04.688Z,97693.94
2022-10-23T21:14:32.971Z,97691.41
2022-10-23T21:17:06.050Z,97679.31
2022-10-23T21:19:34.419Z,97675.88
2022-10-23T21:22:02.653Z,97678.38
2022-10-23T21:24:30.994Z,97670.56
2022-10-23T21:27:02.239Z,97679.09
2022-10-23T21:29:30.706Z,97672.22
2022-10-23T21:32:01.160Z,97672.25
2022-10-23T21:34:31.178Z,97674.88
2022-10-23T21:37:15.244Z,97670.56
2022-10-23T21:39:44.372Z,97670.50
2022-10-23T21:42:12.815Z,97678.34
2022-10-23T21:44:46.009Z,97671.53
2022-10-23T21:47:14.375Z,97674.97
2022-10-23T21:49:44.166Z,97662.91
2022-10-23T21:52:14.037Z,97674.16
2022-10-23T21:54:44.747Z,97674.19
2022-10-23T21:57:14.497Z,97670.72
2022-10-23T21:59:42.728Z,97672.47
2022-10-23T22:02:11.404Z,97674.19
2022-10-23T22:04:44.424Z,97673.34
2022-10-23T22:07:15.008Z,97675.09
2022-10-23T22:09:45.691Z,97674.22
2022-10-23T22:12:13.963Z,97669.03
2022-10-23T22:14:42.675Z,97670.78
2022-10-23T22:17:10.944Z,97671.66
2022-10-23T22:19:42.250Z,97681.13
2022-10-23T22:22:11.942Z,97677.69
2022-10-23T22:24:40.189Z,97678.56
2022-10-23T22:27:08.401Z,97677.69
2022-10-23T22:29:36.711Z,97677.69
2022-10-23T22:32:05.347Z,97673.38
2022-10-23T22:34:51.939Z,97683.72
2022-10-23T22:37:22.268Z,97688.88
2022-10-23T22:39:52.163Z,97682.81
2022-10-23T22:42:20.928Z,97682.84
2022-10-23T22:44:49.202Z,97682.00
2022-10-23T22:47:17.492Z,97677.69
2022-10-23T22:49:45.802Z,97675.09
2022-10-23T22:52:14.089Z,97675.97
2022-10-23T22:54:44.689Z,97682.00
2022-10-23T22:57:12.989Z,97684.56
2022-10-23T22:59:41.531Z,97689.69
2022-10-23T23:02:10.133Z,97684.53
2022-10-23T23:04:39.221Z,97686.25
2022-10-23T23:07:08.578Z,97694.88
2022-10-23T23:09:38.801Z,97692.25
2022-10-23T23:12:09.652Z,97700.84
2022-10-23T23:14:37.963Z,97696.53
2022-10-23T23:17:08.103Z,97690.53
2022-10-23T23:19:36.830Z,97682.78
2022-10-23T23:22:05.280Z,97683.66
2022-10-23T23:24:33.960Z,97680.22
2022-10-23T23:27:02.329Z,97676.78
2022-10-23T23:29:32.039Z,97666.47
2022-10-23T23:32:01.558Z,97667.31
2022-10-23T23:34:30.049Z,97663.88
2022-10-23T23:36:58.262Z,97669.91
2022-10-23T23:39:28.795Z,97651.81
2022-10-23T23:41:57.155Z,97663.88
2022-10-23T23:44:25.461Z,97661.25
2022-10-23T23:46:55.152Z,97655.22
2022-10-23T23:49:23.504Z,97661.25
2022-10-23T23:51:51.960Z,97663.84
2022-10-23T23:54:20.195Z,97669.00
2022-10-23T23:56:48.490Z,97665.59
2022-10-23T23:59:16.747Z,97675.06
